Time;durP1;ratioP1;P1;durP2;ratioP2;P2;SDS_P1;SDS_P2;PMS_P1;PMS_P2;Temp;Humidity;BMP_temperature;BMP_pressure;BME280_temperature;BME280_humidity;BME280_pressure;Samples;Min_cycle;Max_cycle;Signal;HPM_P1;HPM_P2
2022/08/01 00:00:30;;;;;;;33.72;18.95;;;;;;;18.99;100.00;101546.91;5023361;28;20033;-66
2022/08/01 00:02:55;;;;;;;30.45;18.00;;;;;;;18.93;100.00;101550.75;5023032;28;20032;-66
2022/08/01 00:05:20;;;;;;;30.48;18.13;;;;;;;18.93;100.00;101545.19;5023031;28;20407;-66
2022/08/01 00:07:46;;;;;;;37.08;19.08;;;;;;;18.92;100.00;101544.38;5020852;28;20033;-66
2022/08/01 00:10:14;;;;;;;31.42;19.83;;;;;;;18.92;100.00;101549.94;5023443;28;20549;-66
2022/08/01 00:12:40;;;;;;;33.10;19.50;;;;;;;18.96;100.00;101547.47;5022961;28;20038;-66
2022/08/01 00:15:08;;;;;;;31.45;19.48;;;;;;;18.98;100.00;101552.75;5021577;28;20041;-66
2022/08/01 00:17:33;;;;;;;;;;;;;;;19.05;100.00;101550.53;5022779;28;20026;-66
2022/08/01 00:19:59;;;;;;;35.23;19.57;;;;;;;19.00;100.00;101558.88;5023300;28;19924;-66
2022/08/01 00:22:25;;;;;;;28.92;18.95;;;;;;;18.99;100.00;101549.69;5023822;28;20355;-66
2022/08/01 00:24:50;;;;;;;38.63;19.90;;;;;;;19.01;100.00;101558.63;5023858;28;20022;-66
2022/08/01 00:27:15;;;;;;;32.45;20.40;;;;;;;19.00;100.00;101545.78;5024152;28;20681;-66
2022/08/01 00:29:41;;;;;;;34.53;19.95;;;;;;;19.01;100.00;101555.84;5023739;28;20032;-66
2022/08/01 00:32:06;;;;;;;37.38;20.80;;;;;;;18.97;100.00;101556.63;5020708;28;20096;-66
2022/08/01 00:34:32;;;;;;;32.95;20.42;;;;;;;18.93;100.00;101559.13;5023261;28;20086;-66
2022/08/01 00:36:57;;;;;;;36.83;20.48;;;;;;;18.92;100.00;101558.28;5021785;28;20199;-67
2022/08/01 00:39:22;;;;;;;35.85;20.77;;;;;;;18.95;100.00;101568.03;5023111;28;20428;-66
2022/08/01 00:41:47;;;;;;;38.00;22.52;;;;;;;18.99;100.00;101573.91;5022484;28;20036;-66
2022/08/01 00:44:13;;;;;;;41.42;23.40;;;;;;;18.98;100.00;101573.06;5022115;28;20037;-66
2022/08/01 00:46:38;;;;;;;33.10;20.63;;;;;;;18.93;100.00;101567.47;5023192;28;20108;-66
2022/08/01 00:49:05;;;;;;;39.67;22.33;;;;;;;18.96;100.00;101577.22;5022206;28;20030;-66
2022/08/01 00:51:30;;;;;;;30.80;20.08;;;;;;;18.87;100.00;101572.16;5020513;28;20021;-66
2022/08/01 00:53:56;;;;;;;28.55;18.00;;;;;;;18.88;100.00;101571.06;5022543;28;20738;-66
2022/08/01 00:56:24;;;;;;;27.27;16.75;;;;;;;18.82;100.00;101574.91;5022863;28;20491;-66
2022/08/01 00:58:50;;;;;;;30.08;17.40;;;;;;;18.79;100.00;101571.81;5023259;28;20040;-67
2022/08/01 01:01:16;;;;;;;24.67;15.70;;;;;;;18.77;100.00;101583.22;5023214;28;20029;-66
2022/08/01 01:03:41;;;;;;;23.85;15.32;;;;;;;18.73;100.00;101575.69;5030809;22;20045;-66
2022/08/01 01:06:23;;;;;;;23.98;16.42;;;;;;;18.75;100.00;101581.81;5021804;28;20033;-66
2022/08/01 01:09:16;;;;;;;28.13;15.88;;;;;;;18.77;100.00;101579.63;5022436;28;20031;-66
2022/08/01 01:11:51;;;;;;;25.33;15.75;;;;;;;18.72;100.00;101577.63;5021146;28;20076;-66
2022/08/01 01:14:27;;;;;;;29.20;18.13;;;;;;;18.71;100.00;101577.91;5041245;28;20068;-66
2022/08/01 01:16:54;;;;;;;28.95;17.92;;;;;;;18.74;100.00;101571.78;5041097;28;20024;-66
2022/08/01 01:19:24;;;;;;;29.95;18.20;;;;;;;18.72;100.00;101574.00;5033245;28;20493;-66
2022/08/01 01:22:17;;;;;;;26.70;16.23;;;;;;;18.72;100.00;101572.06;5030035;28;20025;-66
2022/08/01 01:25:09;;;;;;;26.30;16.80;;;;;;;18.71;100.00;101575.13;5013083;28;20102;-65
2022/08/01 01:28:12;;;;;;;27.85;17.17;;;;;;;18.73;100.00;101568.16;5030454;28;20132;-70
2022/08/01 01:30:40;;;;;;;28.77;17.67;;;;;;;18.71;100.00;101569.56;5040903;28;20025;-66
2022/08/01 01:33:07;;;;;;;28.65;17.00;;;;;;;18.68;100.00;101562.56;5042572;28;20037;-66
2022/08/01 01:35:38;;;;;;;28.23;16.70;;;;;;;18.69;100.00;101571.75;5021364;28;20033;-65
2022/08/01 01:38:26;;;;;;;24.80;15.82;;;;;;;18.67;100.00;101566.44;5017927;28;20038;-66
2022/08/01 01:40:53;;;;;;;26.70;15.82;;;;;;;18.67;100.00;101577.56;5022141;28;20124;-66
2022/08/01 01:43:19;;;;;;;26.80;15.25;;;;;;;18.62;100.00;101563.63;5040664;28;20147;-66
2022/08/01 01:45:47;;;;;;;29.13;15.90;;;;;;;18.60;100.00;101566.66;5026217;28;20031;-66
2022/08/01 01:48:16;;;;;;;30.75;16.50;;;;;;;18.60;100.00;101566.66;5022264;28;20029;-66
2022/08/01 01:50:45;;;;;;;25.00;14.93;;;;;;;18.59;100.00;101567.75;5025967;28;20051;-66
2022/08/01 01:53:12;;;;;;;27.38;14.23;;;;;;;18.57;100.00;101572.75;5031489;28;20251;-66
2022/08/01 01:55:40;;;;;;;23.45;14.02;;;;;;;18.56;100.00;101568.31;5022461;28;20021;-66
2022/08/01 01:58:08;;;;;;;26.75;14.70;;;;;;;18.58;100.00;101566.09;5023405;28;20045;-66
2022/08/01 02:00:35;;;;;;;23.15;13.73;;;;;;;18.56;100.00;101571.09;5040716;28;20080;-66
2022/08/01 02:03:02;;;;;;;22.30;14.23;;;;;;;18.57;100.00;101566.34;5023358;28;20038;-66
2022/08/01 02:05:28;;;;;;;22.47;14.37;;;;;;;18.56;100.00;101571.09;5015277;28;20038;-66
2022/08/01 02:07:55;;;;;;;24.75;14.15;;;;;;;18.53;100.00;101562.44;5024671;28;20124;-67
2022/08/01 02:10:21;;;;;;;23.90;14.60;;;;;;;18.52;100.00;101558.81;5045420;28;20115;-66
2022/08/01 02:12:49;;;;;;;23.42;13.23;;;;;;;18.48;100.00;101573.50;5044290;28;20021;-66
2022/08/01 02:15:17;;;;;;;22.92;13.35;;;;;;;18.45;100.00;101569.34;5032660;28;20069;-65
2022/08/01 02:17:47;;;;;;;24.55;14.95;;;;;;;18.48;100.00;101568.78;5025876;28;20034;-66
2022/08/01 02:20:13;;;;;;;25.20;14.80;;;;;;;18.48;100.00;101573.50;5025371;28;20442;-66
2022/08/01 02:23:01;;;;;;;25.75;14.27;;;;;;;18.50;100.00;101571.28;5023453;28;20028;-66
2022/08/01 02:25:41;;;;;;;;;;;;;;;18.58;100.00;101568.03;5025546;28;20029;-64
2022/08/01 02:28:10;;;;;;;29.13;14.82;;;;;;;18.47;100.00;101577.41;5025128;28;20015;-66
2022/08/01 02:30:42;;;;;;;27.92;14.50;;;;;;;18.48;100.00;101566.00;5023239;28;20100;-65
2022/08/01 02:33:27;;;;;;;23.50;14.15;;;;;;;18.51;100.00;101573.84;5030775;28;20044;-66
2022/08/01 02:35:57;;;;;;;26.05;13.93;;;;;;;18.46;100.00;101571.00;5018985;28;20076;-66
2022/08/01 02:38:25;;;;;;;25.13;13.82;;;;;;;18.44;100.00;101575.97;5029209;28;20021;-66
2022/08/01 02:40:52;;;;;;;;;;;;;;;18.55;100.00;101580.53;5043443;28;20047;-66
2022/08/01 02:43:21;;;;;;;27.13;14.37;;;;;;;18.47;100.00;101578.25;5035303;28;19955;-66
2022/08/01 02:45:51;;;;;;;27.27;15.18;;;;;;;18.45;100.00;101568.47;5026845;28;20013;-66
2022/08/01 02:48:18;;;;;;;27.38;14.32;;;;;;;18.44;100.00;101573.19;5026196;28;20408;-66
2022/08/01 02:50:47;;;;;;;23.53;13.67;;;;;;;18.42;100.00;101580.97;5024483;28;20386;-66
2022/08/01 02:53:14;;;;;;;25.50;13.55;;;;;;;18.42;100.00;101570.69;5025095;28;20021;-66
2022/08/01 02:55:42;;;;;;;24.42;13.48;;;;;;;18.41;100.00;101577.38;5030444;28;20049;-66
2022/08/01 02:58:09;;;;;;;27.63;15.27;;;;;;;18.37;100.00;101573.44;5036311;28;20022;-66
2022/08/01 03:00:35;;;;;;;26.10;14.13;;;;;;;18.35;100.00;101569.25;5024991;28;20379;-66
2022/08/01 03:03:03;;;;;;;24.50;14.35;;;;;;;18.33;100.00;101579.78;5025151;28;20069;-66
2022/08/01 03:05:31;;;;;;;28.10;14.52;;;;;;;18.30;100.00;101569.22;5028135;28;20029;-66
2022/08/01 03:07:58;;;;;;;28.50;13.93;;;;;;;18.27;100.00;101580.84;5044889;28;20025;-66
2022/08/01 03:10:26;;;;;;;24.17;14.30;;;;;;;18.21;100.00;101563.28;5043809;28;20025;-66
2022/08/01 03:12:52;;;;;;;26.05;13.93;;;;;;;18.19;100.00;101571.03;5042375;28;20039;-66
2022/08/01 03:15:19;;;;;;;26.48;14.80;;;;;;;18.14;100.00;101571.81;5024549;28;20037;-66
2022/08/01 03:17:47;;;;;;;25.60;13.82;;;;;;;18.09;100.00;101577.34;5024494;28;20464;-66
2022/08/01 03:20:15;;;;;;;24.85;14.55;;;;;;;18.06;100.00;101577.03;5033919;28;20685;-66
2022/08/01 03:22:43;;;;;;;27.45;14.60;;;;;;;18.03;100.00;101575.59;5024350;28;20029;-65
2022/08/01 03:25:10;;;;;;;25.15;14.00;;;;;;;17.98;100.00;101570.00;5024741;28;20030;-66
2022/08/01 03:27:36;;;;;;;24.20;13.80;;;;;;;17.94;100.00;101579.13;5043052;28;20384;-66
2022/08/01 03:30:04;;;;;;;26.45;14.40;;;;;;;17.90;100.00;101589.94;5043645;28;20104;-66
2022/08/01 03:32:30;;;;;;;26.25;14.25;;;;;;;17.86;100.00;101586.00;5038685;28;20090;-66
2022/08/01 03:34:57;;;;;;;23.48;13.30;;;;;;;17.83;100.00;101589.28;5024403;28;20033;-66
2022/08/01 03:37:28;;;;;;;27.88;14.43;;;;;;;17.82;100.00;101587.63;5035234;28;20033;-66
2022/08/01 03:40:35;;;;;;;26.38;14.20;;;;;;;17.83;100.00;101587.34;5043657;28;20025;-67
2022/08/01 03:43:10;;;;;;;25.63;14.57;;;;;;;17.74;100.00;101585.28;4949759;28;20478;-66
2022/08/01 03:45:39;;;;;;;26.42;14.90;;;;;;;17.71;100.00;101589.41;5027644;28;20136;-66
2022/08/01 03:48:10;;;;;;;25.98;15.23;;;;;;;17.67;100.00;101585.47;5023369;28;20056;-66
2022/08/01 03:50:39;;;;;;;30.50;15.20;;;;;;;17.64;100.00;101586.84;5023926;28;20349;-66
2022/08/01 03:53:06;;;;;;;28.02;14.50;;;;;;;17.59;100.00;101577.63;5024346;28;20385;-66
2022/08/01 03:55:32;;;;;;;31.85;16.00;;;;;;;17.59;100.00;101588.72;5021325;28;20416;-66
2022/08/01 03:57:59;;;;;;;28.75;15.55;;;;;;;17.59;100.00;101584.00;5023220;28;20057;-66
2022/08/01 04:00:25;;;;;;;27.95;15.32;;;;;;;17.63;100.00;101590.69;5039456;28;20036;-66
2022/08/01 04:02:52;;;;;;;28.10;15.07;;;;;;;17.62;100.00;101588.19;5043453;28;20029;-66
2022/08/01 04:05:18;;;;;;;27.90;15.65;;;;;;;17.63;100.00;101581.53;5037019;28;20053;-66
2022/08/01 04:07:55;;;;;;;27.77;15.32;;;;;;;17.59;100.00;101589.56;5017443;28;20802;-66
2022/08/01 04:10:24;;;;;;;27.15;15.13;;;;;;;17.55;100.00;101588.41;5003784;28;20036;-66
2022/08/01 04:12:50;;;;;;;30.50;15.82;;;;;;;17.54;100.00;101586.72;5028924;28;20083;-66
2022/08/01 04:15:16;;;;;;;30.42;16.52;;;;;;;17.54;100.00;101583.13;5035339;28;20040;-66
2022/08/01 04:17:41;;;;;;;31.33;16.30;;;;;;;17.50;100.00;101582.78;5024830;28;20072;-66
2022/08/01 04:20:07;;;;;;;31.05;15.38;;;;;;;17.47;100.00;101588.84;5023202;28;20579;-66
2022/08/01 04:22:33;;;;;;;33.08;15.80;;;;;;;17.45;100.00;101588.28;5023840;28;20030;-67
2022/08/01 04:25:01;;;;;;;29.02;15.45;;;;;;;17.43;100.00;101593.22;5024190;28;20025;-66
2022/08/01 04:27:30;;;;;;;30.15;15.48;;;;;;;17.42;100.00;101597.13;5022464;28;20033;-66
2022/08/01 04:29:58;;;;;;;29.05;14.65;;;;;;;17.41;100.00;101601.00;5016497;28;20021;-67
2022/08/01 04:32:27;;;;;;;27.33;14.43;;;;;;;17.39;100.00;101600.44;5025211;28;20024;-66
2022/08/01 04:34:55;;;;;;;29.27;14.30;;;;;;;17.36;100.00;101592.59;5036515;28;20710;-66
2022/08/01 04:37:23;;;;;;;27.20;14.75;;;;;;;17.36;100.00;101601.75;5021739;28;20049;-66
2022/08/01 04:39:51;;;;;;;25.50;13.70;;;;;;;17.34;100.00;101594.81;5023173;28;20125;-67
2022/08/01 04:42:17;;;;;;;26.52;13.70;;;;;;;17.33;100.00;101591.16;5021633;28;20491;-66
2022/08/01 04:44:43;;;;;;;27.55;13.57;;;;;;;17.35;100.00;101596.47;5023204;28;20029;-65
2022/08/01 04:47:08;;;;;;;23.90;13.43;;;;;;;17.32;100.00;101595.03;5022913;28;20049;-65
2022/08/01 04:49:35;;;;;;;24.23;12.68;;;;;;;17.31;100.00;101604.47;5022814;28;20025;-65
2022/08/01 04:52:00;;;;;;;23.98;12.90;;;;;;;17.33;100.00;101595.88;5020929;28;20025;-64
2022/08/01 04:54:27;;;;;;;25.27;12.93;;;;;;;17.34;100.00;101597.59;5021745;28;20753;-66
2022/08/01 04:56:55;;;;;;;25.17;13.38;;;;;;;17.32;100.00;101608.09;5021226;28;20033;-65
2022/08/01 05:02:05;;;;;;;25.75;13.45;;;;;;;17.33;100.00;101612.53;5022360;28;20052;-65
2022/08/01 05:04:30;;;;;;;21.45;12.05;;;;;;;17.34;100.00;101611.47;5022165;28;20045;-65
2022/08/01 05:06:56;;;;;;;26.35;13.02;;;;;;;17.36;100.00;101610.09;5022183;28;20025;-65
2022/08/01 05:09:21;;;;;;;25.67;13.38;;;;;;;17.41;100.00;101612.09;5022620;28;20388;-65
2022/08/01 05:11:46;;;;;;;26.30;14.07;;;;;;;17.45;100.00;101613.28;5021785;28;20033;-65
2022/08/01 05:14:11;;;;;;;24.85;13.35;;;;;;;17.50;100.00;101607.78;5022004;28;20017;-65
2022/08/01 05:16:37;;;;;;;23.88;13.52;;;;;;;17.60;100.00;101623.75;5022470;28;20581;-65
2022/08/01 05:19:02;;;;;;;25.08;13.45;;;;;;;17.68;100.00;101619.66;5021951;28;20029;-66
2022/08/01 05:21:27;;;;;;;25.58;14.55;;;;;;;17.77;100.00;101620.91;5021611;28;20494;-67
2022/08/01 05:23:53;;;;;;;27.25;13.07;;;;;;;17.84;100.00;101624.31;5022102;28;20022;-65
2022/08/01 05:26:18;;;;;;;23.52;13.15;;;;;;;17.88;100.00;101631.88;5021490;28;20538;-65
2022/08/01 05:28:43;;;;;;;25.27;13.05;;;;;;;17.95;100.00;101628.91;5020432;28;20026;-65
2022/08/01 05:31:09;;;;;;;24.05;12.82;;;;;;;17.99;100.00;101637.53;5021614;28;20456;-66
2022/08/01 05:33:34;;;;;;;25.70;14.23;;;;;;;18.02;100.00;101637.88;5021823;28;20392;-65
2022/08/01 05:35:59;;;;;;;25.48;13.23;;;;;;;18.07;100.00;101634.31;5021334;28;20030;-65
2022/08/01 05:38:25;;;;;;;23.17;12.70;;;;;;;18.16;100.00;101635.53;5023167;28;20049;-65
2022/08/01 05:40:50;;;;;;;24.35;12.90;;;;;;;18.27;100.00;101639.25;5025717;28;20022;-65
2022/08/01 05:43:16;;;;;;;22.25;12.57;;;;;;;18.36;100.00;101644.06;5025672;28;20116;-65
2022/08/01 05:45:41;;;;;;;22.63;12.30;;;;;;;18.42;100.00;101653.31;5025925;28;20024;-65
2022/08/01 05:48:06;;;;;;;23.75;11.77;;;;;;;18.49;100.00;101644.72;5025830;28;20409;-65
2022/08/01 05:50:32;;;;;;;22.08;12.15;;;;;;;18.49;100.00;101647.50;5025262;28;20446;-65
2022/08/01 05:52:58;;;;;;;22.30;11.77;;;;;;;18.48;100.00;101641.09;5025686;28;20129;-66
2022/08/01 05:55:23;;;;;;;21.98;11.63;;;;;;;18.46;100.00;101646.13;5025341;28;20110;-65
2022/08/01 05:57:48;;;;;;;22.88;11.55;;;;;;;18.50;100.00;101638.94;5025066;28;20666;-65
2022/08/01 06:00:15;;;;;;;19.63;11.77;;;;;;;18.55;100.00;101647.31;5025739;28;20162;-65
2022/08/01 06:02:44;;;;;;;21.50;10.48;;;;;;;18.59;100.00;101642.03;5025486;28;20136;-65
2022/08/01 06:05:10;;;;;;;22.30;12.18;;;;;;;18.54;100.00;101642.81;5024414;28;20036;-65
2022/08/01 06:07:36;;;;;;;20.35;11.20;;;;;;;18.50;100.00;101650.06;5025458;28;20021;-66
2022/08/01 06:10:01;;;;;;;18.27;10.82;;;;;;;18.54;100.00;101651.19;5025761;28;20342;-65
2022/08/01 06:12:27;;;;;;;21.48;12.13;;;;;;;18.56;100.00;101651.78;5024491;28;20060;-65
2022/08/01 06:14:52;;;;;;;17.65;11.15;;;;;;;18.57;100.00;101658.16;5024903;28;20120;-65
2022/08/01 06:17:17;;;;;;;20.45;11.38;;;;;;;18.58;100.00;101654.28;5026004;28;20037;-65
2022/08/01 06:19:42;;;;;;;18.65;11.00;;;;;;;18.63;100.00;101649.59;5025339;28;20053;-65
2022/08/01 06:22:08;;;;;;;21.80;11.77;;;;;;;18.73;100.00;101653.59;5024536;28;20460;-67
2022/08/01 06:24:33;;;;;;;19.77;11.35;;;;;;;18.77;100.00;101649.19;5025425;28;20033;-65
2022/08/01 06:26:58;;;;;;;18.45;10.13;;;;;;;18.79;100.00;101658.09;5024220;28;20028;-65
2022/08/01 06:29:24;;;;;;;16.52;9.77;;;;;;;18.83;100.00;101656.47;5025168;28;20022;-66
2022/08/01 06:31:49;;;;;;;15.38;8.80;;;;;;;18.85;100.00;101651.47;5025236;28;20123;-67
2022/08/01 06:34:15;;;;;;;14.18;8.57;;;;;;;18.93;100.00;101657.38;5024817;28;20043;-65
2022/08/01 06:36:40;;;;;;;12.45;7.35;;;;;;;19.03;100.00;101656.63;5024910;28;20079;-65
2022/08/01 06:39:05;;;;;;;11.57;7.20;;;;;;;19.07;100.00;101666.13;5024794;28;20391;-65
2022/08/01 06:41:31;;;;;;;10.10;6.88;;;;;;;19.08;99.17;101661.38;5024124;28;20383;-65
2022/08/01 06:43:56;;;;;;;11.43;6.75;;;;;;;19.10;98.60;101667.50;5024618;28;20030;-65
2022/08/01 06:46:21;;;;;;;11.55;6.57;;;;;;;19.21;98.66;101671.19;5024895;28;20053;-65
2022/08/01 06:48:47;;;;;;;9.90;6.47;;;;;;;19.22;98.14;101664.56;5025010;28;20157;-65
2022/08/01 06:51:16;;;;;;;11.35;6.95;;;;;;;19.29;96.65;101667.94;5023829;28;20026;-65
2022/08/01 06:53:41;;;;;;;10.50;6.20;;;;;;;19.38;96.75;101671.88;5025109;28;20065;-65
2022/08/01 06:56:08;;;;;;;10.63;6.75;;;;;;;19.47;96.02;101675.00;5024144;28;20068;-65
2022/08/01 06:58:34;;;;;;;13.02;7.47;;;;;;;19.66;96.32;101682.63;5024528;28;20028;-66
2022/08/01 07:01:00;;;;;;;10.02;7.15;;;;;;;19.82;94.45;101680.78;5024266;28;20388;-65
2022/08/01 07:03:26;;;;;;;9.88;7.30;;;;;;;19.82;92.58;101671.56;5024649;28;20034;-65
2022/08/01 07:05:51;;;;;;;10.63;7.50;;;;;;;19.76;92.72;101673.50;5023721;28;20484;-65
2022/08/01 07:08:16;;;;;;;12.43;7.32;;;;;;;19.72;93.44;101674.31;5024496;28;20041;-65
2022/08/01 07:10:43;;;;;;;10.77;6.78;;;;;;;19.74;93.93;101672.09;5024216;28;20020;-65
2022/08/01 07:13:08;;;;;;;12.20;7.20;;;;;;;19.79;93.08;101672.13;5023395;28;20025;-65
2022/08/01 07:15:33;;;;;;;11.50;7.90;;;;;;;19.81;94.47;101678.25;5024277;28;20026;-65
2022/08/01 07:18:01;;;;;;;11.10;7.67;;;;;;;19.77;93.10;101679.91;5024058;28;20671;-66
2022/08/01 07:20:26;;;;;;;11.40;7.63;;;;;;;19.73;92.48;101679.63;5023649;28;20330;-65
2022/08/01 07:22:52;;;;;;;11.05;7.63;;;;;;;19.79;93.59;101684.09;5023949;28;20029;-65
2022/08/01 07:25:17;;;;;;;12.57;8.05;;;;;;;19.83;92.97;101687.19;5024358;28;20028;-67
2022/08/01 07:27:42;;;;;;;12.43;8.40;;;;;;;19.82;91.56;101678.00;5023251;28;20040;-65
2022/08/01 07:30:08;;;;;;;10.38;7.22;;;;;;;19.91;92.66;101683.88;5023774;28;20650;-65
2022/08/01 07:32:34;;;;;;;10.77;7.20;;;;;;;20.06;91.99;101685.88;5024213;28;20099;-65
2022/08/01 07:35:00;;;;;;;9.90;6.80;;;;;;;20.21;91.09;101686.75;5023265;28;20037;-65
2022/08/01 07:37:25;;;;;;;9.98;7.07;;;;;;;20.29;88.63;101682.59;5023456;28;20044;-65
2022/08/01 07:39:50;;;;;;;10.27;6.78;;;;;;;20.27;88.29;101684.81;5023974;28;20325;-65
2022/08/01 07:42:16;;;;;;;11.40;7.25;;;;;;;20.36;90.53;101685.97;5023155;28;20125;-65
2022/08/01 07:44:41;;;;;;;9.68;7.00;;;;;;;20.42;89.34;101686.78;5023576;28;20503;-65
2022/08/01 07:47:07;;;;;;;10.52;7.45;;;;;;;20.47;88.67;101690.47;5023581;28;20037;-65
2022/08/01 07:49:32;;;;;;;10.38;6.93;;;;;;;20.55;88.52;101691.88;5024165;28;20056;-65
2022/08/01 07:51:57;;;;;;;9.25;7.00;;;;;;;20.57;87.25;101688.81;5022110;28;20033;-65
2022/08/01 07:54:27;;;;;;;10.60;7.28;;;;;;;20.53;85.73;101699.72;5023635;28;20017;-66
2022/08/01 07:56:53;;;;;;;10.05;7.18;;;;;;;20.61;87.17;101696.34;5022600;28;20108;-65
2022/08/01 07:59:22;;;;;;;9.73;7.65;;;;;;;20.68;86.41;101705.31;5023706;28;20104;-65
2022/08/01 08:01:48;;;;;;;10.23;7.63;;;;;;;20.76;84.52;101694.69;5023324;28;20025;-65
2022/08/01 08:04:14;;;;;;;10.85;7.78;;;;;;;20.85;84.20;101701.41;5022029;28;20046;-65
2022/08/01 08:06:41;;;;;;;11.15;8.98;;;;;;;21.06;86.23;101703.06;5023444;28;20033;-65
2022/08/01 08:09:06;;;;;;;11.93;7.30;;;;;;;21.28;85.64;101697.16;5024061;28;20132;-65
2022/08/01 08:11:32;;;;;;;11.85;8.23;;;;;;;21.43;83.43;101696.34;5023452;28;20116;-65
2022/08/01 08:13:57;;;;;;;14.15;8.95;;;;;;;21.74;84.53;101691.47;5023046;28;20034;-65
2022/08/01 08:16:22;;;;;;;10.95;8.40;;;;;;;21.79;81.35;101688.66;5023538;28;20037;-65
2022/08/01 08:18:48;;;;;;;11.60;8.10;;;;;;;21.81;81.38;101691.19;5024216;28;20032;-65
2022/08/01 08:21:13;;;;;;;10.23;7.50;;;;;;;21.62;79.00;101694.59;5022385;28;20033;-66
2022/08/01 08:26:23;;;;;;;9.90;6.95;;;;;;;21.72;81.36;101700.16;5022639;28;20040;-65
2022/08/01 08:28:49;;;;;;;10.20;7.20;;;;;;;21.60;79.27;101696.88;5023964;28;20033;-65
2022/08/01 08:31:14;;;;;;;8.90;6.40;;;;;;;21.71;79.53;101695.69;5023196;28;20017;-65
2022/08/01 08:33:39;;;;;;;9.57;6.35;;;;;;;21.79;78.80;101693.44;5022850;28;20033;-65
2022/08/01 08:36:04;;;;;;;7.83;6.00;;;;;;;21.61;78.07;101694.91;5022886;28;20037;-65
2022/08/01 08:38:30;;;;;;;8.63;5.63;;;;;;;21.63;79.75;101696.28;5024036;28;20298;-65
2022/08/01 08:40:56;;;;;;;8.87;6.20;;;;;;;21.68;80.23;101693.47;5021792;28;20022;-65
2022/08/01 08:43:21;;;;;;;9.77;6.90;;;;;;;21.82;80.82;101709.66;5023081;28;20272;-66
2022/08/01 08:45:47;;;;;;;9.70;6.50;;;;;;;22.05;79.93;101703.41;5023540;28;20021;-65
2022/08/01 08:48:13;;;;;;;10.25;6.53;;;;;;;22.17;76.34;101698.31;5022678;28;20026;-66
2022/08/01 08:50:40;;;;;;;8.80;6.38;;;;;;;22.41;77.68;101706.03;5022611;28;20542;-66
2022/08/01 08:53:09;;;;;;;9.52;5.45;;;;;;;22.49;76.22;101705.41;5021479;28;20025;-66
2022/08/01 08:55:35;;;;;;;7.90;4.57;;;;;;;22.52;75.44;101702.03;5022637;28;20373;-65
2022/08/01 08:58:05;;;;;;;8.90;5.90;;;;;;;22.35;73.94;101701.56;5022200;28;20018;-65
2022/08/01 09:00:31;;;;;;;9.05;6.35;;;;;;;22.53;74.89;101707.34;5022950;28;20029;-66
2022/08/01 09:02:56;;;;;;;9.52;6.38;;;;;;;22.64;72.87;101705.28;5021203;28;20041;-66
2022/08/01 09:05:25;;;;;;;9.30;6.32;;;;;;;22.64;72.31;101704.47;5022535;28;20485;-66
2022/08/01 09:07:51;;;;;;;9.02;5.47;;;;;;;22.63;74.73;101709.22;5022800;28;20029;-66
2022/08/01 09:10:17;;;;;;;9.75;4.80;;;;;;;22.58;75.56;101712.06;5022856;28;20021;-66
2022/08/01 09:13:12;;;;;;;6.00;3.92;;;;;;;22.63;74.52;101717.63;5021603;28;20032;-67
2022/08/01 09:15:53;;;;;;;7.10;4.50;;;;;;;23.32;74.87;101729.72;5022263;28;20030;-67
2022/08/01 09:18:28;;;;;;;6.97;4.43;;;;;;;23.90;70.11;101723.22;5023210;28;20033;-65
2022/08/01 09:21:23;;;;;;;8.18;4.43;;;;;;;23.46;73.28;101727.03;5021772;28;20072;-66
2022/08/01 09:23:54;;;;;;;7.43;4.25;;;;;;;22.91;72.62;101726.41;5014144;28;20120;-67
2022/08/01 09:26:27;;;;;;;7.80;3.83;;;;;;;22.66;73.19;101731.06;5021010;28;20032;-67
2022/08/01 09:28:52;;;;;;;7.22;4.00;;;;;;;22.40;74.03;101735.13;5021331;28;20067;-67
2022/08/01 09:31:19;;;;;;;6.30;4.00;;;;;;;22.26;76.31;101734.94;5021815;28;20112;-67
2022/08/01 09:33:57;;;;;;;7.28;4.30;;;;;;;22.26;75.35;101740.53;5022319;28;20065;-68
2022/08/01 09:36:25;;;;;;;6.38;3.55;;;;;;;22.74;73.43;101735.19;5020743;28;20033;-67
2022/08/01 09:38:52;;;;;;;6.03;3.83;;;;;;;24.58;65.53;101732.16;5021602;28;20026;-68
2022/08/01 09:41:29;;;;;;;5.67;3.03;;;;;;;26.72;61.08;101724.38;5021649;28;20021;-68
2022/08/01 09:43:55;;;;;;;4.78;3.00;;;;;;;28.49;55.70;101721.78;5021191;28;20443;-65
2022/08/01 09:46:21;;;;;;;5.65;2.95;;;;;;;29.46;49.09;101722.22;5021226;28;20014;-65
2022/08/01 09:49:00;;;;;;;4.45;2.47;;;;;;;29.61;50.27;101735.03;5021952;28;20044;-65
2022/08/01 09:51:43;;;;;;;3.60;1.92;;;;;;;28.84;52.28;101734.78;5021825;28;20045;-66
2022/08/01 09:54:08;;;;;;;4.88;2.63;;;;;;;28.03;52.62;101728.81;5022234;28;20026;-66
2022/08/01 09:56:38;;;;;;;5.88;2.00;;;;;;;26.90;55.20;101736.63;5019847;28;20053;-67
2022/08/01 09:59:04;;;;;;;3.90;2.20;;;;;;;25.79;57.48;101746.38;5021940;28;20022;-68
2022/08/01 10:01:43;;;;;;;4.05;2.25;;;;;;;25.05;62.29;101738.69;5018377;28;20163;-66
2022/08/01 10:04:14;;;;;;;2.83;1.95;;;;;;;24.44;62.71;101747.25;5020637;28;20152;-68
2022/08/01 10:06:44;;;;;;;3.35;2.22;;;;;;;23.90;63.87;101737.25;5020577;28;20802;-67
2022/08/01 10:09:11;;;;;;;3.60;1.90;;;;;;;23.68;66.31;101747.03;5021113;28;20076;-67
2022/08/01 10:11:40;;;;;;;3.37;2.20;;;;;;;23.81;68.08;101742.66;5021012;28;20596;-68
2022/08/01 10:14:06;;;;;;;4.18;2.15;;;;;;;25.50;64.46;101741.03;5022001;28;20307;-68
2022/08/01 10:16:34;;;;;;;4.05;2.05;;;;;;;26.63;57.61;101737.56;5021027;28;20078;-68
2022/08/01 10:19:01;;;;;;;4.75;2.10;;;;;;;26.54;57.38;101739.47;5021458;28;20030;-68
2022/08/01 10:21:27;;;;;;;3.72;1.65;;;;;;;28.09;54.92;101747.28;5021108;28;20029;-68
2022/08/01 10:23:54;;;;;;;3.38;1.85;;;;;;;29.68;49.77;101747.47;5021909;28;20053;-70
2022/08/01 10:26:20;;;;;;;3.45;1.50;;;;;;;29.21;48.75;101747.41;5024608;28;20069;-68
2022/08/01 10:28:48;;;;;;;2.72;1.33;;;;;;;28.46;49.66;101756.38;5024630;28;20036;-68
2022/08/01 10:31:13;;;;;;;2.13;1.35;;;;;;;28.55;49.13;101743.09;5025328;28;20018;-68
2022/08/01 10:33:41;;;;;;;1.73;1.08;;;;;;;27.72;51.48;101741.00;5025334;28;20036;-68
2022/08/01 10:36:07;;;;;;;2.00;1.13;;;;;;;28.21;52.23;101749.47;5024105;28;20540;-68
2022/08/01 10:38:33;;;;;;;3.25;0.90;;;;;;;28.84;49.29;101740.44;5024622;28;20111;-68
2022/08/01 10:41:01;;;;;;;3.08;1.20;;;;;;;27.72;51.87;101752.28;5024041;28;20017;-67
2022/08/01 10:43:27;;;;;;;2.47;1.27;;;;;;;26.47;55.13;101755.97;5025123;28;20025;-67
2022/08/01 10:45:53;;;;;;;2.38;1.50;;;;;;;25.32;58.90;101754.84;5024437;28;20159;-69
2022/08/01 10:48:24;;;;;;;5.72;2.20;;;;;;;24.28;61.41;101761.47;5024020;28;20476;-67
2022/08/01 10:50:53;;;;;;;4.60;1.88;;;;;;;23.59;63.22;101759.16;5024189;28;20061;-68
2022/08/01 10:53:24;;;;;;;3.40;1.60;;;;;;;23.12;64.78;101766.34;5025542;28;20108;-67
2022/08/01 10:55:56;;;;;;;3.35;1.30;;;;;;;22.80;63.85;101765.66;5024313;28;20476;-68
2022/08/01 10:58:24;;;;;;;2.88;1.33;;;;;;;22.56;65.87;101772.25;5023421;28;20715;-69
2022/08/01 11:01:09;;;;;;;;;;;;;;;22.76;66.81;101769.38;5025714;28;20030;-67
2022/08/01 11:03:35;;;;;;;3.42;1.30;;;;;;;22.46;67.06;101773.19;5023996;28;19924;-67
2022/08/01 11:06:03;;;;;;;3.78;1.23;;;;;;;22.24;66.59;101780.00;5023296;28;20029;-67
2022/08/01 11:08:30;;;;;;;;;;;;;;;22.40;67.89;101782.72;5024205;28;20472;-67
2022/08/01 11:11:04;;;;;;;4.05;1.65;;;;;;;22.09;69.23;101784.78;5023192;28;20334;-67
2022/08/01 11:13:57;;;;;;;3.83;1.50;;;;;;;22.38;69.08;101779.38;5024683;28;20026;-67
2022/08/01 11:16:27;;;;;;;4.35;1.77;;;;;;;23.02;65.35;101779.28;5024439;28;20438;-67
2022/08/01 11:18:53;;;;;;;4.03;1.48;;;;;;;23.48;62.61;101786.47;5023817;28;20029;-67
2022/08/01 11:21:19;;;;;;;4.87;1.60;;;;;;;24.30;64.89;101784.44;5023891;28;20083;-67